createdAt,value
2016-11-06T00:00:13.059Z,939.55
2016-11-06T00:01:12.934Z,939.54
2016-11-06T00:02:14.251Z,939.56
2016-11-06T00:03:13.984Z,939.56
2016-11-06T00:04:13.446Z,939.53
2016-11-06T00:05:12.635Z,939.54
2016-11-06T00:06:13.428Z,939.50
2016-11-06T00:07:13.048Z,939.52
2016-11-06T00:08:12.709Z,939.51
2016-11-06T00:09:13.719Z,939.49
2016-11-06T00:10:24.699Z,939.52
2016-11-06T00:11:14.080Z,939.56
2016-11-06T00:12:13.607Z,939.54
2016-11-06T00:13:13.819Z,939.56
2016-11-06T00:14:12.474Z,939.59
2016-11-06T00:15:12.873Z,939.56
2016-11-06T00:16:13.115Z,939.59
2016-11-06T00:17:13.601Z,939.57
2016-11-06T00:18:13.775Z,939.59
2016-11-06T00:19:12.391Z,939.56
2016-11-06T00:20:12.748Z,939.56
2016-11-06T00:21:12.754Z,939.57
2016-11-06T00:22:12.409Z,939.61
2016-11-06T00:23:14.360Z,939.60
2016-11-06T00:24:19.371Z,939.62
2016-11-06T00:25:13.921Z,939.58
2016-11-06T00:26:14.049Z,939.57
2016-11-06T00:27:13.521Z,939.59
2016-11-06T00:28:15.220Z,939.62
2016-11-06T00:29:12.288Z,939.61
2016-11-06T00:30:12.459Z,939.61
2016-11-06T00:31:13.518Z,939.64
2016-11-06T00:32:11.426Z,939.66
2016-11-06T00:33:12.732Z,939.63
2016-11-06T00:34:12.599Z,939.65
2016-11-06T00:35:14.741Z,939.69
2016-11-06T00:36:12.847Z,939.69
2016-11-06T00:37:14.390Z,939.71
2016-11-06T00:38:14.023Z,939.67
2016-11-06T00:39:10.949Z,939.73
2016-11-06T00:40:12.107Z,939.77
2016-11-06T00:41:13.717Z,939.74
2016-11-06T00:42:13.269Z,939.78
2016-11-06T00:43:13.072Z,939.76
2016-11-06T00:44:12.841Z,939.70
2016-11-06T00:45:14.711Z,939.75
2016-11-06T00:46:14.490Z,939.72
2016-11-06T00:47:18.549Z,939.75
2016-11-06T00:48:13.125Z,939.72
2016-11-06T00:49:13.949Z,939.71
2016-11-06T00:50:12.699Z,939.73
2016-11-06T00:51:14.340Z,939.77
2016-11-06T00:52:14.900Z,939.78
2016-11-06T00:53:19.070Z,939.77
2016-11-06T00:54:12.854Z,939.77
2016-11-06T00:55:15.523Z,939.71
2016-11-06T00:56:13.117Z,939.74
2016-11-06T00:57:11.185Z,939.73
2016-11-06T00:58:24.083Z,939.70
2016-11-06T00:59:12.732Z,939.73
2016-11-06T01:00:13.434Z,939.71
2016-11-06T01:01:20.374Z,939.69
2016-11-06T01:02:12.675Z,939.69
2016-11-06T01:03:13.286Z,939.67
2016-11-06T01:04:10.111Z,939.67
2016-11-06T01:05:13.305Z,939.72
2016-11-06T01:06:13.362Z,939.67
2016-11-06T01:07:13.283Z,939.74
2016-11-06T01:08:12.555Z,939.73
2016-11-06T01:09:14.945Z,939.78
2016-11-06T01:10:13.860Z,939.80
2016-11-06T01:11:13.874Z,939.80
2016-11-06T01:12:13.511Z,939.82
2016-11-06T01:13:13.045Z,939.79
2016-11-06T01:14:12.926Z,939.82
2016-11-06T01:15:12.642Z,939.84
2016-11-06T01:16:14.891Z,939.86
2016-11-06T01:17:13.350Z,939.86
2016-11-06T01:18:13.532Z,939.86
2016-11-06T01:19:13.933Z,939.76
2016-11-06T01:20:12.570Z,939.77
2016-11-06T01:21:13.280Z,939.73
2016-11-06T01:22:15.099Z,939.73
2016-11-06T01:23:12.941Z,939.68
2016-11-06T01:24:12.739Z,939.68
2016-11-06T01:25:11.011Z,939.68
2016-11-06T01:26:11.300Z,939.62
2016-11-06T01:27:14.995Z,939.64
2016-11-06T01:28:12.374Z,939.60
2016-11-06T01:29:13.269Z,939.59
2016-11-06T01:30:13.796Z,939.57
2016-11-06T01:31:12.012Z,939.59
2016-11-06T01:32:15.565Z,939.56
2016-11-06T01:33:13.326Z,939.53
2016-11-06T01:34:12.387Z,939.52
2016-11-06T01:35:13.339Z,939.54
2016-11-06T01:36:12.887Z,939.48
2016-11-06T01:37:12.497Z,939.53
2016-11-06T01:38:11.281Z,939.52
2016-11-06T01:39:12.489Z,939.52
2016-11-06T01:40:13.889Z,939.50
2016-11-06T01:41:13.292Z,939.54
2016-11-06T01:42:13.537Z,939.53
2016-11-06T01:43:13.588Z,939.57
2016-11-06T01:44:11.659Z,939.64
2016-11-06T01:45:11.298Z,939.63
2016-11-06T01:46:13.490Z,939.57
2016-11-06T01:47:10.554Z,939.56
2016-11-06T01:48:13.733Z,939.54
2016-11-06T01:49:19.026Z,939.53
2016-11-06T01:50:13.638Z,939.56
2016-11-06T01:51:12.973Z,939.57
2016-11-06T01:52:19.117Z,939.58
2016-11-06T01:53:13.316Z,939.52
2016-11-06T01:54:12.597Z,939.47
2016-11-06T01:55:15.007Z,939.43
2016-11-06T01:56:12.776Z,939.43
2016-11-06T01:57:12.936Z,939.37
2016-11-06T01:58:19.472Z,939.41
2016-11-06T01:59:11.297Z,939.50
2016-11-06T02:00:13.820Z,939.55
2016-11-06T02:01:13.316Z,939.55
2016-11-06T02:02:12.969Z,939.53
2016-11-06T02:03:18.938Z,939.47
2016-11-06T02:04:13.548Z,939.40
2016-11-06T02:05:13.360Z,939.40
2016-11-06T02:06:12.988Z,939.43
2016-11-06T02:07:11.169Z,939.41
2016-11-06T02:08:13.513Z,939.38
2016-11-06T02:09:14.457Z,939.32
2016-11-06T02:10:13.252Z,939.30
2016-11-06T02:11:13.181Z,939.29
2016-11-06T02:12:12.811Z,939.35
2016-11-06T02:13:14.882Z,939.34
2016-11-06T02:14:12.123Z,939.33
2016-11-06T02:15:13.221Z,939.29
2016-11-06T02:16:13.201Z,939.26
2016-11-06T02:17:13.916Z,939.33
2016-11-06T02:18:12.125Z,939.40
2016-11-06T02:19:12.311Z,939.39
2016-11-06T02:20:12.914Z,939.39
2016-11-06T02:21:13.311Z,939.37
2016-11-06T02:22:10.614Z,939.38
2016-11-06T02:23:13.423Z,939.41
2016-11-06T02:24:13.931Z,939.38
2016-11-06T02:25:13.895Z,939.41
2016-11-06T02:26:12.198Z,939.38
2016-11-06T02:27:13.851Z,939.42
2016-11-06T02:28:11.957Z,939.35
2016-11-06T02:29:12.593Z,939.36
2016-11-06T02:30:13.597Z,939.30
2016-11-06T02:31:13.540Z,939.28
2016-11-06T02:32:14.647Z,939.26
2016-11-06T02:33:15.498Z,939.26
2016-11-06T02:34:14.221Z,939.26
2016-11-06T02:35:14.332Z,939.28
2016-11-06T02:36:12.888Z,939.30
2016-11-06T02:37:14.531Z,939.28
2016-11-06T02:38:13.727Z,939.29
2016-11-06T02:39:13.380Z,939.34
2016-11-06T02:40:19.573Z,939.33
2016-11-06T02:41:13.074Z,939.28
2016-11-06T02:42:13.732Z,939.29
2016-11-06T02:43:12.578Z,939.33
2016-11-06T02:44:15.434Z,939.34
2016-11-06T02:45:13.486Z,939.34
2016-11-06T02:46:12.599Z,939.37
2016-11-06T02:47:13.754Z,939.37
2016-11-06T02:48:12.148Z,939.38
2016-11-06T02:49:13.664Z,939.34
2016-11-06T02:50:11.375Z,939.32
2016-11-06T02:51:13.086Z,939.32
2016-11-06T02:52:12.194Z,939.27
2016-11-06T02:53:14.062Z,939.25
2016-11-06T02:54:12.090Z,939.28
2016-11-06T02:55:14.837Z,939.23
2016-11-06T02:56:13.017Z,939.25
2016-11-06T02:57:12.908Z,939.24
2016-11-06T02:58:14.046Z,939.22
2016-11-06T02:59:13.767Z,939.24
2016-11-06T03:00:12.082Z,939.19
2016-11-06T03:01:11.416Z,939.17
2016-11-06T03:02:11.814Z,939.23
2016-11-06T03:03:11.951Z,939.23
2016-11-06T03:04:12.252Z,939.22
2016-11-06T03:05:12.519Z,939.22
2016-11-06T03:06:12.503Z,939.23
2016-11-06T03:07:13.515Z,939.20
2016-11-06T03:08:13.438Z,939.21
2016-11-06T03:09:17.822Z,939.21
2016-11-06T03:10:12.428Z,939.21
2016-11-06T03:11:13.077Z,939.17
2016-11-06T03:12:20.144Z,939.21
2016-11-06T03:13:13.865Z,939.20
2016-11-06T03:14:13.674Z,939.22
2016-11-06T03:15:12.876Z,939.25
2016-11-06T03:16:10.808Z,939.19
2016-11-06T03:17:12.790Z,939.22
2016-11-06T03:18:13.523Z,939.21
2016-11-06T03:19:13.691Z,939.24
2016-11-06T03:20:18.359Z,939.25
2016-11-06T03:21:12.990Z,939.29
2016-11-06T03:22:19.007Z,939.25
2016-11-06T03:23:13.658Z,939.28
2016-11-06T03:24:13.708Z,939.25
2016-11-06T03:25:11.380Z,939.26
2016-11-06T03:26:14.257Z,939.22
2016-11-06T03:27:13.614Z,939.25
2016-11-06T03:28:13.509Z,939.21
2016-11-06T03:29:13.248Z,939.17
2016-11-06T03:30:13.918Z,939.19
2016-11-06T03:31:12.654Z,939.19
2016-11-06T03:32:13.379Z,939.20
2016-11-06T03:33:12.980Z,939.23
2016-11-06T03:34:11.179Z,939.21
2016-11-06T03:35:12.325Z,939.15
2016-11-06T03:36:12.276Z,939.21
2016-11-06T03:37:14.170Z,939.19
2016-11-06T03:38:10.130Z,939.13
2016-11-06T03:39:11.969Z,939.07
2016-11-06T03:40:12.476Z,939.13
2016-11-06T03:41:14.328Z,939.10
2016-11-06T03:42:12.486Z,939.05
2016-11-06T03:43:12.708Z,939.02
2016-11-06T03:44:18.505Z,939.04
2016-11-06T03:45:13.078Z,939.00
2016-11-06T03:46:13.224Z,938.96
2016-11-06T03:47:12.974Z,938.91
2016-11-06T03:48:12.779Z,938.89
2016-11-06T03:49:14.677Z,938.86
2016-11-06T03:50:15.959Z,938.80
2016-11-06T03:51:12.889Z,938.85
2016-11-06T03:52:18.050Z,938.86
2016-11-06T03:53:12.163Z,938.89
2016-11-06T03:54:12.499Z,938.91
2016-11-06T03:55:14.021Z,938.90
2016-11-06T03:56:12.142Z,938.86
2016-11-06T03:57:12.932Z,938.89
2016-11-06T03:58:11.878Z,938.85
2016-11-06T03:59:11.902Z,938.86
2016-11-06T04:00:12.729Z,938.82
2016-11-06T04:01:10.866Z,938.82
2016-11-06T04:02:12.821Z,938.80
2016-11-06T04:03:12.545Z,938.77
2016-11-06T04:04:12.953Z,938.77
2016-11-06T04:05:12.107Z,938.77
2016-11-06T04:06:12.899Z,938.82
2016-11-06T04:07:11.950Z,938.82
2016-11-06T04:08:11.951Z,938.83
2016-11-06T04:09:13.414Z,938.84
2016-11-06T04:10:13.034Z,938.79
2016-11-06T04:11:12.456Z,938.74
2016-11-06T04:12:13.476Z,938.76
2016-11-06T04:13:12.985Z,938.78
2016-11-06T04:14:10.711Z,938.83
2016-11-06T04:15:11.949Z,938.82
2016-11-06T04:16:12.034Z,938.82
2016-11-06T04:17:12.977Z,938.77
2016-11-06T04:18:12.731Z,938.82
2016-11-06T04:19:14.861Z,938.85
2016-11-06T04:20:12.327Z,938.88
2016-11-06T04:21:12.360Z,938.92
2016-11-06T04:22:12.391Z,938.93
2016-11-06T04:23:13.964Z,938.95
2016-11-06T04:24:13.212Z,938.96
2016-11-06T04:25:13.182Z,938.97
2016-11-06T04:26:12.328Z,938.97
2016-11-06T04:27:12.780Z,938.94
2016-11-06T04:28:12.620Z,938.95
2016-11-06T04:29:13.151Z,938.92
2016-11-06T04:30:12.280Z,938.93
2016-11-06T04:31:12.138Z,938.95
2016-11-06T04:32:12.781Z,938.97
2016-11-06T04:33:11.762Z,939.01
2016-11-06T04:34:12.791Z,939.02
2016-11-06T04:35:12.403Z,939.03
2016-11-06T04:36:13.331Z,939.02
2016-11-06T04:37:13.474Z,938.97
2016-11-06T04:38:15.621Z,938.96
2016-11-06T04:39:13.359Z,938.94
2016-11-06T04:40:12.993Z,938.95
2016-11-06T04:41:12.340Z,938.90
2016-11-06T04:42:15.175Z,938.86
2016-11-06T04:43:13.347Z,938.83
2016-11-06T04:44:12.856Z,938.81
2016-11-06T04:45:12.669Z,938.82
2016-11-06T04:46:13.209Z,938.83
2016-11-06T04:47:13.782Z,938.83
2016-11-06T04:48:14.041Z,938.85
2016-11-06T04:49:12.917Z,938.90
2016-11-06T04:50:13.778Z,938.87
2016-11-06T04:51:14.211Z,938.82
2016-11-06T04:52:12.107Z,938.87
2016-11-06T04:53:12.603Z,938.84
2016-11-06T04:54:13.055Z,938.85
2016-11-06T04:55:13.914Z,938.83
2016-11-06T04:56:13.427Z,938.81
2016-11-06T04:57:12.880Z,938.75
2016-11-06T04:58:12.521Z,938.76
2016-11-06T04:59:12.536Z,938.73
2016-11-06T05:00:13.251Z,938.75
2016-11-06T05:01:12.164Z,938.78
2016-11-06T05:02:14.077Z,938.74
2016-11-06T05:03:12.978Z,938.76
2016-11-06T05:04:12.251Z,938.74
2016-11-06T05:05:12.468Z,938.77
2016-11-06T05:06:12.491Z,938.75
2016-11-06T05:07:13.182Z,938.80
2016-11-06T05:08:12.837Z,938.85
2016-11-06T05:09:11.962Z,938.85
2016-11-06T05:10:13.197Z,938.88
2016-11-06T05:11:12.270Z,938.81
2016-11-06T05:12:15.141Z,938.84
2016-11-06T05:13:13.795Z,938.85
2016-11-06T05:14:12.555Z,938.78
2016-11-06T05:15:13.031Z,938.75
2016-11-06T05:16:12.073Z,938.79
2016-11-06T05:17:12.742Z,938.79
2016-11-06T05:18:12.521Z,938.79
2016-11-06T05:19:13.121Z,938.76
2016-11-06T05:20:13.776Z,938.72
2016-11-06T05:21:10.108Z,938.69
2016-11-06T05:22:12.037Z,938.63
2016-11-06T05:23:14.693Z,938.61
2016-11-06T05:24:13.407Z,938.58
2016-11-06T05:25:13.219Z,938.57
2016-11-06T05:26:14.062Z,938.60
2016-11-06T05:27:16.516Z,938.59
2016-11-06T05:28:12.268Z,938.63
2016-11-06T05:29:12.924Z,938.68
2016-11-06T05:30:12.544Z,938.72
2016-11-06T05:31:12.580Z,938.73
2016-11-06T05:32:18.151Z,938.75
2016-11-06T05:33:13.046Z,938.77
2016-11-06T05:34:12.121Z,938.77
2016-11-06T05:35:12.340Z,938.79
2016-11-06T05:36:09.933Z,938.81
2016-11-06T05:37:13.861Z,938.77
2016-11-06T05:38:11.998Z,938.81
2016-11-06T05:39:18.438Z,938.79
2016-11-06T05:40:18.618Z,938.76
2016-11-06T05:41:13.168Z,938.77
2016-11-06T05:42:13.200Z,938.81
2016-11-06T05:43:12.197Z,938.76
2016-11-06T05:44:13.603Z,938.77
2016-11-06T05:45:13.382Z,938.75
2016-11-06T05:46:12.410Z,938.73
2016-11-06T05:47:13.502Z,938.71
2016-11-06T05:48:13.657Z,938.66
2016-11-06T05:49:13.040Z,938.60
2016-11-06T05:50:12.636Z,938.59
2016-11-06T05:51:13.133Z,938.57
2016-11-06T05:52:12.553Z,938.58
2016-11-06T05:53:11.222Z,938.64
2016-11-06T05:54:13.139Z,938.66
2016-11-06T05:55:12.247Z,938.70
2016-11-06T05:56:12.866Z,938.73
2016-11-06T05:57:13.754Z,938.73
2016-11-06T05:58:13.406Z,938.78
2016-11-06T05:59:13.065Z,938.78
2016-11-06T06:00:12.774Z,938.78
2016-11-06T06:01:10.894Z,938.79
2016-11-06T06:02:12.524Z,938.71
2016-11-06T06:03:13.073Z,938.66
2016-11-06T06:04:14.003Z,938.65
2016-11-06T06:05:11.981Z,938.60
2016-11-06T06:06:12.050Z,938.60
2016-11-06T06:07:12.796Z,938.58
2016-11-06T06:08:12.633Z,938.57
2016-11-06T06:09:12.639Z,938.58
2016-11-06T06:10:13.212Z,938.67
2016-11-06T06:11:12.653Z,938.74
2016-11-06T06:12:19.668Z,938.81
2016-11-06T06:13:12.604Z,938.90
2016-11-06T06:14:14.425Z,938.96
2016-11-06T06:15:12.407Z,938.94
2016-11-06T06:16:13.038Z,938.92
2016-11-06T06:17:12.733Z,938.98
2016-11-06T06:18:12.486Z,938.97
2016-11-06T06:19:12.549Z,939.02
2016-11-06T06:20:13.423Z,939.07
2016-11-06T06:21:14.018Z,939.15
2016-11-06T06:22:12.084Z,939.17
2016-11-06T06:23:12.711Z,939.18
2016-11-06T06:24:12.662Z,939.23
2016-11-06T06:25:14.350Z,939.29
2016-11-06T06:26:10.515Z,939.34
2016-11-06T06:27:12.547Z,939.33
2016-11-06T06:28:12.451Z,939.43
2016-11-06T06:29:12.523Z,939.41
2016-11-06T06:30:13.159Z,939.43
2016-11-06T06:31:13.583Z,939.40
2016-11-06T06:32:11.589Z,939.41
2016-11-06T06:33:14.173Z,939.42
2016-11-06T06:34:12.782Z,939.47
2016-11-06T06:35:12.456Z,939.42
2016-11-06T06:36:13.581Z,939.45
2016-11-06T06:37:13.194Z,939.44
2016-11-06T06:38:11.036Z,939.44
2016-11-06T06:39:12.729Z,939.49
2016-11-06T06:40:13.118Z,939.51
2016-11-06T06:41:12.650Z,939.55
2016-11-06T06:42:13.465Z,939.56
2016-11-06T06:43:13.957Z,939.57
2016-11-06T06:44:18.118Z,939.55
2016-11-06T06:45:12.267Z,939.48
2016-11-06T06:46:13.039Z,939.52
2016-11-06T06:47:19.473Z,939.56
2016-11-06T06:48:17.907Z,939.62
2016-11-06T06:49:13.754Z,939.65
2016-11-06T06:50:12.284Z,939.68
2016-11-06T06:51:12.357Z,939.70
2016-11-06T06:52:13.263Z,939.66
2016-11-06T06:53:12.983Z,939.64
2016-11-06T06:54:12.156Z,939.67
2016-11-06T06:55:20.341Z,939.65
2016-11-06T06:56:12.953Z,939.66
2016-11-06T06:57:12.680Z,939.68
2016-11-06T06:58:13.597Z,939.67
2016-11-06T06:59:12.478Z,939.69
2016-11-06T07:00:12.484Z,939.68
2016-11-06T07:01:13.270Z,939.72
2016-11-06T07:02:11.351Z,939.80
2016-11-06T07:03:18.344Z,939.89
2016-11-06T07:04:09.855Z,939.89
2016-11-06T07:05:14.551Z,939.89
2016-11-06T07:06:12.677Z,939.91
2016-11-06T07:07:11.511Z,939.92
2016-11-06T07:08:14.298Z,940.00
2016-11-06T07:09:12.597Z,940.00
2016-11-06T07:10:13.289Z,939.99
2016-11-06T07:11:12.717Z,939.99
2016-11-06T07:12:13.582Z,940.01
2016-11-06T07:13:12.658Z,940.02
2016-11-06T07:14:11.377Z,939.99
2016-11-06T07:15:13.548Z,940.08
2016-11-06T07:16:18.841Z,940.06
2016-11-06T07:17:10.898Z,940.04
2016-11-06T07:18:12.415Z,940.03
2016-11-06T07:19:13.127Z,940.04
2016-11-06T07:20:10.931Z,940.05
2016-11-06T07:21:12.005Z,940.02
2016-11-06T07:22:13.480Z,940.06
2016-11-06T07:23:13.984Z,940.03
2016-11-06T07:24:12.017Z,940.02
2016-11-06T07:25:12.657Z,940.03
2016-11-06T07:26:13.452Z,940.05
2016-11-06T07:27:13.949Z,940.05
2016-11-06T07:28:12.747Z,940.07
2016-11-06T07:29:12.278Z,940.07
2016-11-06T07:30:10.932Z,940.13
2016-11-06T07:31:12.729Z,940.17
2016-11-06T07:32:13.136Z,940.19
2016-11-06T07:33:13.078Z,940.26
2016-11-06T07:34:12.328Z,940.22
2016-11-06T07:35:11.382Z,940.27
2016-11-06T07:36:12.873Z,940.39
2016-11-06T07:37:11.817Z,940.44
2016-11-06T07:38:13.600Z,940.42
2016-11-06T07:39:12.643Z,940.42
2016-11-06T07:40:13.083Z,940.36
2016-11-06T07:41:12.139Z,940.36
2016-11-06T07:42:11.266Z,940.28
2016-11-06T07:43:13.858Z,940.33
2016-11-06T07:44:12.306Z,940.24
2016-11-06T07:45:11.338Z,940.22
2016-11-06T07:46:12.838Z,940.25
2016-11-06T07:47:12.570Z,940.22
2016-11-06T07:48:12.611Z,940.25
2016-11-06T07:49:18.860Z,940.28
2016-11-06T07:50:12.715Z,940.25
2016-11-06T07:51:12.790Z,940.23
2016-11-06T07:52:13.226Z,940.22
2016-11-06T07:53:12.950Z,940.21
2016-11-06T07:54:12.697Z,940.22
2016-11-06T07:55:13.382Z,940.26
2016-11-06T07:56:11.476Z,940.24
2016-11-06T07:57:13.388Z,940.20
2016-11-06T07:58:12.367Z,940.18
2016-11-06T07:59:13.030Z,940.15
2016-11-06T08:00:13.692Z,940.18
2016-11-06T08:01:13.110Z,940.16
2016-11-06T08:02:11.217Z,940.22
2016-11-06T08:03:17.902Z,940.24
2016-11-06T08:04:12.017Z,940.22
2016-11-06T08:05:13.831Z,940.25
2016-11-06T08:06:14.193Z,940.28
2016-11-06T08:07:13.977Z,940.35
2016-11-06T08:08:10.961Z,940.35
2016-11-06T08:09:10.365Z,940.30
2016-11-06T08:10:14.001Z,940.34
2016-11-06T08:11:12.894Z,940.33
2016-11-06T08:12:11.912Z,940.37
2016-11-06T08:13:12.605Z,940.39
2016-11-06T08:14:12.548Z,940.34
2016-11-06T08:15:12.969Z,940.38
2016-11-06T08:16:13.586Z,940.36
2016-11-06T08:17:13.713Z,940.42
2016-11-06T08:18:12.809Z,940.45
2016-11-06T08:19:13.827Z,940.54
2016-11-06T08:20:11.870Z,940.53
2016-11-06T08:21:12.606Z,940.65
2016-11-06T08:22:12.745Z,940.70
2016-11-06T08:23:23.926Z,940.68
2016-11-06T08:24:12.797Z,940.67
2016-11-06T08:25:12.418Z,940.63
2016-11-06T08:26:12.505Z,940.58
2016-11-06T08:27:13.186Z,940.46
2016-11-06T08:28:17.870Z,940.41
2016-11-06T08:29:12.148Z,940.36
2016-11-06T08:30:12.236Z,940.33
2016-11-06T08:31:12.210Z,940.38
2016-11-06T08:32:13.199Z,940.41
2016-11-06T08:33:12.942Z,940.49
2016-11-06T08:34:12.608Z,940.49
2016-11-06T08:35:13.376Z,940.42
2016-11-06T08:36:12.344Z,940.45
2016-11-06T08:37:12.340Z,940.43
2016-11-06T08:38:13.970Z,940.53
2016-11-06T08:39:12.830Z,940.55
2016-11-06T08:40:11.895Z,940.61
2016-11-06T08:41:12.561Z,940.55
2016-11-06T08:42:13.117Z,940.48
2016-11-06T08:43:12.637Z,940.46
2016-11-06T08:44:16.239Z,940.47
2016-11-06T08:45:13.989Z,940.50
2016-11-06T08:46:12.433Z,940.53
2016-11-06T08:47:12.726Z,940.55
2016-11-06T08:48:13.245Z,940.54
2016-11-06T08:49:12.964Z,940.55
2016-11-06T08:50:23.807Z,940.47
2016-11-06T08:51:12.394Z,940.45
2016-11-06T08:52:12.938Z,940.46
2016-11-06T08:53:12.068Z,940.47
2016-11-06T08:54:14.721Z,940.50
2016-11-06T08:55:12.837Z,940.54
2016-11-06T08:56:11.990Z,940.57
2016-11-06T08:57:11.852Z,940.56
2016-11-06T08:58:12.670Z,940.63
2016-11-06T08:59:13.301Z,940.65
2016-11-06T09:00:12.637Z,940.66
2016-11-06T09:01:14.305Z,940.66
2016-11-06T09:02:13.056Z,940.72
2016-11-06T09:03:12.553Z,940.70
2016-11-06T09:04:16.356Z,940.76
2016-11-06T09:05:12.342Z,940.81
2016-11-06T09:06:12.497Z,940.84
2016-11-06T09:07:12.576Z,940.78
2016-11-06T09:08:13.219Z,940.75
2016-11-06T09:09:13.795Z,940.63
2016-11-06T09:10:12.067Z,940.70
2016-11-06T09:11:12.241Z,940.66
2016-11-06T09:12:23.929Z,940.63
2016-11-06T09:13:12.561Z,940.64
2016-11-06T09:14:13.073Z,940.60
2016-11-06T09:15:17.664Z,940.59
2016-11-06T09:16:12.601Z,940.58
2016-11-06T09:17:12.764Z,940.62
2016-11-06T09:18:12.687Z,940.62
2016-11-06T09:19:12.630Z,940.70
2016-11-06T09:20:13.229Z,940.67
2016-11-06T09:21:12.529Z,940.68
2016-11-06T09:22:12.435Z,940.71
2016-11-06T09:23:13.001Z,940.73
2016-11-06T09:24:12.529Z,940.72
2016-11-06T09:25:12.969Z,940.72
2016-11-06T09:26:12.438Z,940.80
2016-11-06T09:27:12.476Z,940.77
2016-11-06T09:28:18.487Z,940.86
2016-11-06T09:29:14.230Z,940.88
2016-11-06T09:30:12.186Z,940.88
2016-11-06T09:31:12.479Z,940.86
2016-11-06T09:32:13.080Z,940.85
2016-11-06T09:33:12.943Z,940.83
2016-11-06T09:34:12.378Z,940.87
2016-11-06T09:35:15.392Z,940.89
2016-11-06T09:36:18.582Z,940.89
2016-11-06T09:37:14.376Z,940.90
2016-11-06T09:38:12.514Z,940.85
2016-11-06T09:39:14.927Z,940.80
2016-11-06T09:40:11.846Z,940.72
2016-11-06T09:41:12.310Z,940.71
2016-11-06T09:42:12.858Z,940.67
2016-11-06T09:43:12.230Z,940.62
2016-11-06T09:44:12.310Z,940.61
2016-11-06T09:45:12.963Z,940.57
2016-11-06T09:46:13.587Z,940.63
2016-11-06T09:47:12.454Z,940.66
2016-11-06T09:48:13.043Z,940.70
2016-11-06T09:49:13.125Z,940.85
2016-11-06T09:50:13.144Z,940.92
2016-11-06T09:51:12.085Z,940.97
2016-11-06T09:52:12.846Z,940.92
2016-11-06T09:53:18.416Z,940.88
2016-11-06T09:54:12.541Z,940.83
2016-11-06T09:55:10.727Z,940.81
2016-11-06T09:56:13.860Z,940.86
2016-11-06T09:57:11.839Z,940.88
2016-11-06T09:58:12.637Z,940.85
2016-11-06T09:59:13.064Z,940.81
2016-11-06T10:00:12.625Z,940.79
2016-11-06T10:01:12.747Z,940.75
2016-11-06T10:02:12.618Z,940.69
2016-11-06T10:03:13.471Z,940.68
2016-11-06T10:04:12.952Z,940.62
2016-11-06T10:05:12.625Z,940.66
2016-11-06T10:06:12.630Z,940.67
2016-11-06T10:07:13.392Z,940.72
2016-11-06T10:08:13.943Z,940.71
2016-11-06T10:09:12.580Z,940.70
2016-11-06T10:10:12.239Z,940.66
2016-11-06T10:11:12.401Z,940.63
2016-11-06T10:12:12.494Z,940.57
2016-11-06T10:13:12.973Z,940.55
2016-11-06T10:14:12.551Z,940.51
2016-11-06T10:15:12.830Z,940.52
2016-11-06T10:16:11.786Z,940.52
2016-11-06T10:17:12.059Z,940.52
2016-11-06T10:18:12.727Z,940.51
2016-11-06T10:19:12.911Z,940.51
2016-11-06T10:20:12.720Z,940.55
2016-11-06T10:21:12.745Z,940.52
2016-11-06T10:22:12.018Z,940.52
2016-11-06T10:23:13.789Z,940.53
2016-11-06T10:24:11.713Z,940.52
2016-11-06T10:25:12.600Z,940.51
2016-11-06T10:26:13.191Z,940.50
2016-11-06T10:27:12.395Z,940.41
2016-11-06T10:28:12.590Z,940.36
2016-11-06T10:29:13.213Z,940.33
2016-11-06T10:30:13.901Z,940.33
2016-11-06T10:31:12.603Z,940.38
2016-11-06T10:32:12.706Z,940.43
2016-11-06T10:33:12.810Z,940.43
2016-11-06T10:34:11.924Z,940.33
2016-11-06T10:35:18.328Z,940.27
2016-11-06T10:36:12.712Z,940.32
2016-11-06T10:37:11.792Z,940.35
2016-11-06T10:38:10.095Z,940.36
2016-11-06T10:39:12.712Z,940.31
2016-11-06T10:40:12.838Z,940.29
2016-11-06T10:41:12.033Z,940.29
2016-11-06T10:42:12.693Z,940.29
2016-11-06T10:43:13.112Z,940.28
2016-11-06T10:44:12.584Z,940.27
2016-11-06T10:45:13.394Z,940.28
2016-11-06T10:46:12.458Z,940.28
2016-11-06T10:47:12.367Z,940.27
2016-11-06T10:48:17.934Z,940.32
2016-11-06T10:49:12.219Z,940.35
2016-11-06T10:50:13.152Z,940.41
2016-11-06T10:51:12.139Z,940.37
2016-11-06T10:52:13.109Z,940.38
2016-11-06T10:53:11.938Z,940.34
2016-11-06T10:54:12.731Z,940.33
2016-11-06T10:55:12.797Z,940.28
2016-11-06T10:56:10.576Z,940.30
2016-11-06T10:57:12.515Z,940.30
2016-11-06T10:58:12.991Z,940.31
2016-11-06T10:59:12.516Z,940.33
2016-11-06T11:00:12.953Z,940.34
2016-11-06T11:01:12.590Z,940.34
2016-11-06T11:02:14.064Z,940.34
2016-11-06T11:03:12.107Z,940.34
2016-11-06T11:04:12.327Z,940.32
2016-11-06T11:05:14.161Z,940.33
2016-11-06T11:06:13.980Z,940.32
2016-11-06T11:07:12.602Z,940.38
2016-11-06T11:08:13.108Z,940.35
2016-11-06T11:09:12.603Z,940.39
2016-11-06T11:10:13.341Z,940.40
2016-11-06T11:11:12.334Z,940.34
2016-11-06T11:12:12.365Z,940.33
2016-11-06T11:13:18.069Z,940.25
2016-11-06T11:14:12.156Z,940.29
2016-11-06T11:15:11.439Z,940.32
2016-11-06T11:16:12.632Z,940.32
2016-11-06T11:17:20.043Z,940.36
2016-11-06T11:18:12.731Z,940.35
2016-11-06T11:19:13.762Z,940.41
2016-11-06T11:20:11.869Z,940.47
2016-11-06T11:21:12.947Z,940.45
2016-11-06T11:22:12.588Z,940.41
2016-11-06T11:23:14.160Z,940.34
2016-11-06T11:24:11.210Z,940.38
2016-11-06T11:25:12.286Z,940.43
2016-11-06T11:26:12.377Z,940.36
2016-11-06T11:27:12.473Z,940.30
2016-11-06T11:28:12.884Z,940.29
2016-11-06T11:29:12.080Z,940.26
2016-11-06T11:30:12.792Z,940.30
2016-11-06T11:31:12.385Z,940.32
2016-11-06T11:32:11.517Z,940.27
2016-11-06T11:33:12.291Z,940.28
2016-11-06T11:34:12.460Z,940.25
2016-11-06T11:35:12.431Z,940.28
2016-11-06T11:36:12.972Z,940.29
2016-11-06T11:37:12.851Z,940.25
2016-11-06T11:38:11.829Z,940.25
2016-11-06T11:39:12.189Z,940.32
2016-11-06T11:40:12.848Z,940.33
2016-11-06T11:41:12.592Z,940.35
2016-11-06T11:42:13.313Z,940.44
2016-11-06T11:43:13.163Z,940.50
2016-11-06T11:44:12.218Z,940.51
2016-11-06T11:45:12.250Z,940.50
2016-11-06T11:46:12.252Z,940.50
2016-11-06T11:47:12.337Z,940.55
2016-11-06T11:48:13.601Z,940.59
2016-11-06T11:49:13.226Z,940.57
2016-11-06T11:50:12.301Z,940.53
2016-11-06T11:51:12.740Z,940.51
2016-11-06T11:52:12.626Z,940.55
2016-11-06T11:53:12.663Z,940.57
2016-11-06T11:54:09.936Z,940.59
2016-11-06T11:55:11.946Z,940.56
2016-11-06T11:56:17.588Z,940.57
2016-11-06T11:57:18.925Z,940.53
2016-11-06T11:58:12.453Z,940.59
2016-11-06T11:59:13.671Z,940.65
2016-11-06T12:00:15.061Z,940.67
2016-11-06T12:01:13.205Z,940.61
2016-11-06T12:02:13.974Z,940.58
2016-11-06T12:03:12.012Z,940.60
2016-11-06T12:04:12.846Z,940.57
2016-11-06T12:05:11.086Z,940.57
2016-11-06T12:06:12.057Z,940.59
2016-11-06T12:07:12.921Z,940.65
2016-11-06T12:08:11.934Z,940.66
2016-11-06T12:09:11.905Z,940.66
2016-11-06T12:10:12.383Z,940.67
2016-11-06T12:11:14.085Z,940.65
2016-11-06T12:12:12.136Z,940.70
2016-11-06T12:13:12.864Z,940.71
2016-11-06T12:14:12.720Z,940.73
2016-11-06T12:15:12.831Z,940.72
2016-11-06T12:16:13.994Z,940.66
2016-11-06T12:17:13.079Z,940.62
2016-11-06T12:18:12.889Z,940.60
2016-11-06T12:19:13.098Z,940.60
2016-11-06T12:20:14.125Z,940.58
2016-11-06T12:21:13.321Z,940.56
2016-11-06T12:22:14.953Z,940.50
2016-11-06T12:23:12.224Z,940.52
2016-11-06T12:24:18.772Z,940.57
2016-11-06T12:25:11.973Z,940.64
2016-11-06T12:26:12.602Z,940.68
2016-11-06T12:27:13.313Z,940.73
2016-11-06T12:28:12.305Z,940.68